Time;durP1;ratioP1;P1;durP2;ratioP2;P2;SDS_P1;SDS_P2;PMS_P1;PMS_P2;Temp;Humidity;BMP_temperature;BMP_pressure;BME280_temperature;BME280_humidity;BME280_pressure;Samples;Min_cycle;Max_cycle;Signal;HPM_P1;HPM_P2
2022/03/13 00:00:17;;;;;;;;;;;;;;;17.04;59.86;99294.78;2090806;28;20226;-52
2022/03/13 00:01:21;;;;;;;;;;;;;;;17.03;59.78;99276.75;2095366;28;20066;-51
2022/03/13 00:02:21;;;;;;;;;;;;;;;17.03;59.59;99287.66;2081866;28;19927;-49
2022/03/13 00:03:22;;;;;;;;;;;;;;;17.03;59.56;99275.91;2083886;28;19947;-49
2022/03/13 00:04:23;;;;;;;;;;;;;;;17.04;59.68;99278.44;2093309;28;19920;-52
2022/03/13 00:05:24;;;;;;;;;;;;;;;17.05;59.37;99287.47;2094072;28;19920;-52
2022/03/13 00:06:27;;;;;;;;;;;;;;;17.05;59.53;99291.06;2090074;28;19938;-52
2022/03/13 00:07:30;;;;;;;;;;;;;;;17.04;59.47;99294.78;2087889;28;20199;-52
2022/03/13 00:08:33;;;;;;;;;;;;;;;17.04;59.27;99288.50;2090952;28;19924;-50
2022/03/13 00:09:34;;;;;;;;;;;;;;;17.04;59.51;99288.50;2096185;28;19919;-49
2022/03/13 00:10:34;;;;;;;;;;;;;;;17.05;59.42;99285.63;2092323;28;19966;-49
2022/03/13 00:11:35;;;;;;;;;;;;;;;17.04;59.39;99293.94;2087010;28;20344;-52
2022/03/13 00:12:35;;;;;;;;;;;;;;;17.04;59.49;99288.50;2085021;28;20011;-50
2022/03/13 00:13:44;;;;;;;;;;;;;;;17.04;59.39;99299.38;2085588;28;19920;-53
2022/03/13 00:14:44;;;;;;;;;;;;;;;17.01;59.21;99300.56;2088628;28;19965;-52
2022/03/13 00:15:45;;;;;;;;;;;;;;;17.01;59.36;99292.38;2090140;28;19924;-53
2022/03/13 00:16:46;;;;;;;;;;;;;;;17.01;59.32;99294.25;2093056;28;19920;-51
2022/03/13 00:17:47;;;;;;;;;;;;;;;16.99;59.19;99297.13;2092194;28;20356;-51
2022/03/13 00:18:47;;;;;;;;;;;;;;;16.99;59.26;99299.84;2089332;28;19921;-51
2022/03/13 00:19:48;;;;;;;;;;;;;;;16.99;59.27;99294.41;2088906;28;20183;-50
2022/03/13 00:20:49;;;;;;;;;;;;;;;16.98;59.44;99289.97;2086960;28;20331;-52
2022/03/13 00:21:50;;;;;;;;;;;;;;;17.00;59.46;99292.53;2090326;28;19919;-53
2022/03/13 00:22:51;;;;;;;;;;;;;;;17.00;59.36;99290.69;2091656;28;19956;-52
2022/03/13 00:23:51;;;;;;;;;;;;;;;16.98;59.16;99295.44;2089083;28;20680;-51
2022/03/13 00:24:51;;;;;;;;;;;;;;;16.97;59.32;99290.97;2088846;28;20196;-53
2022/03/13 00:25:52;;;;;;;;;;;;;;;16.98;59.19;99283.66;2089084;28;19927;-50
2022/03/13 00:26:52;;;;;;;;;;;;;;;16.98;58.99;99281.81;2092966;28;19927;-49
2022/03/13 00:27:54;;;;;;;;;;;;;;;16.99;59.12;99286.22;2082690;28;20030;-52
2022/03/13 00:28:55;;;;;;;;;;;;;;;16.97;59.21;99280.09;2083227;28;19916;-52
2022/03/13 00:29:55;;;;;;;;;;;;;;;16.96;59.31;99270.22;2088104;28;19924;-51
2022/03/13 00:30:56;;;;;;;;;;;;;;;16.98;59.29;99267.31;2091965;28;19924;-53
2022/03/13 00:31:57;;;;;;;;;;;;;;;16.98;59.45;99268.19;2096212;28;19958;-49
2022/03/13 00:33:00;;;;;;;;;;;;;;;16.97;59.27;99269.19;2092372;28;19927;-51
2022/03/13 00:34:00;;;;;;;;;;;;;;;16.98;59.17;99261.88;2088398;28;19920;-52
2022/03/13 00:35:01;;;;;;;;;;;;;;;16.96;58.97;99256.59;2077088;28;20600;-50
2022/03/13 00:36:01;;;;;;;;;;;;;;;16.97;59.03;99257.47;2081943;28;20452;-51
2022/03/13 00:37:01;;;;;;;;;;;;;;;16.95;59.26;99246.72;2083660;28;20171;-52
2022/03/13 00:38:02;;;;;;;;;;;;;;;16.95;59.31;99254.88;2086846;28;20480;-49
2022/03/13 00:39:03;;;;;;;;;;;;;;;16.96;59.47;99259.34;2091680;28;20297;-53
2022/03/13 00:40:03;;;;;;;;;;;;;;;16.97;59.19;99258.31;2081754;28;20134;-53
2022/03/13 00:41:04;;;;;;;;;;;;;;;16.96;59.05;99258.47;2083357;28;20254;-52
2022/03/13 00:42:04;;;;;;;;;;;;;;;16.95;59.35;99260.31;2091757;28;20269;-53
2022/03/13 00:43:05;;;;;;;;;;;;;;;16.93;59.28;99260.50;2080057;28;19920;-53
2022/03/13 00:44:06;;;;;;;;;;;;;;;16.95;59.21;99256.75;2096252;28;19919;-52
2022/03/13 00:45:06;;;;;;;;;;;;;;;16.93;59.42;99255.06;2087009;28;19913;-51
2022/03/13 00:46:06;;;;;;;;;;;;;;;16.93;59.25;99259.66;2089050;28;19947;-53
2022/03/13 00:47:07;;;;;;;;;;;;;;;16.95;59.43;99267.63;2090584;28;19936;-51
2022/03/13 00:48:08;;;;;;;;;;;;;;;16.94;59.26;99261.34;2088936;28;20124;-53
2022/03/13 00:49:08;;;;;;;;;;;;;;;16.93;59.34;99251.47;2090324;28;20223;-51
2022/03/13 00:50:09;;;;;;;;;;;;;;;16.92;59.41;99252.47;2086663;28;19913;-52
2022/03/13 00:51:10;;;;;;;;;;;;;;;16.90;59.31;99254.50;2090158;28;20237;-49
2022/03/13 00:52:10;;;;;;;;;;;;;;;16.91;59.34;99250.78;2094076;28;19912;-52
2022/03/13 00:53:11;;;;;;;;;;;;;;;16.92;59.34;99249.75;2088593;28;19965;-52
2022/03/13 00:54:11;;;;;;;;;;;;;;;16.89;59.20;99242.75;2089287;28;20396;-52
2022/03/13 00:55:12;;;;;;;;;;;;;;;16.91;59.43;99234.44;2085031;28;19927;-53
2022/03/13 00:56:13;;;;;;;;;;;;;;;16.89;59.21;99242.75;2089320;28;20265;-52
2022/03/13 00:57:13;;;;;;;;;;;;;;;16.88;59.33;99223.88;2091031;28;19919;-54
2022/03/13 00:58:14;;;;;;;;;;;;;;;16.89;59.37;99229.16;2095795;28;20397;-52
2022/03/13 00:59:14;;;;;;;;;;;;;;;16.90;59.23;99236.31;2091675;28;19927;-53
2022/03/13 01:00:15;;;;;;;;;;;;;;;16.90;59.35;99227.28;2084089;28;20749;-53
2022/03/13 01:01:16;;;;;;;;;;;;;;;16.91;59.13;99220.84;2088824;28;19927;-54
2022/03/13 01:02:16;;;;;;;;;;;;;;;16.90;59.28;99228.16;2094210;28;19994;-52
2022/03/13 01:03:37;;;;;;;;;;;;;;;16.91;59.37;99223.56;2090699;28;20576;-53
2022/03/13 01:04:37;;;;;;;;;;;;;;;16.91;58.99;99224.41;2076137;28;19935;-51
2022/03/13 01:05:37;;;;;;;;;;;;;;;16.93;59.17;99233.28;2087206;28;19920;-53
2022/03/13 01:06:38;;;;;;;;;;;;;;;16.93;59.18;99219.66;2090772;28;19956;-50
2022/03/13 01:07:39;;;;;;;;;;;;;;;16.93;59.32;99216.94;2084287;28;19917;-53
2022/03/13 01:08:40;;;;;;;;;;;;;;;16.96;59.03;99231.25;2075172;28;20237;-53
2022/03/13 01:09:41;;;;;;;;;;;;;;;16.96;58.96;99232.09;2077826;28;20366;-50
2022/03/13 01:10:42;;;;;;;;;;;;;;;16.96;59.05;99221.22;2093943;28;19920;-53
2022/03/13 01:11:43;;;;;;;;;;;;;;;16.97;58.86;99228.34;2087864;28;19962;-49
2022/03/13 01:12:43;;;;;;;;;;;;;;;16.98;58.89;99226.47;2087294;28;19999;-53
2022/03/13 01:13:44;;;;;;;;;;;;;;;16.96;59.11;99226.66;2089329;28;19920;-53
2022/03/13 01:14:44;;;;;;;;;;;;;;;16.97;59.20;99222.91;2080284;28;19924;-51
2022/03/13 01:15:47;;;;;;;;;;;;;;;16.97;59.12;99214.75;2086232;28;20539;-50
2022/03/13 01:16:48;;;;;;;;;;;;;;;16.95;59.25;99216.75;2090649;28;19920;-54
2022/03/13 01:17:49;;;;;;;;;;;;;;;16.96;59.14;99220.38;2091322;28;19926;-51
2022/03/13 01:18:58;;;;;;;;;;;;;;;16.96;59.04;99204.03;2092465;28;19927;-54
2022/03/13 01:19:58;;;;;;;;;;;;;;;16.95;58.88;99211.31;2088404;28;20379;-51
2022/03/13 01:20:58;;;;;;;;;;;;;;;16.95;58.82;99199.59;2096536;28;20195;-52
2022/03/13 01:21:59;;;;;;;;;;;;;;;16.95;58.96;99207.75;2091450;28;19916;-50
2022/03/13 01:22:59;;;;;;;;;;;;;;;16.95;59.07;99208.59;2093508;28;19912;-53
2022/03/13 01:24:00;;;;;;;;;;;;;;;16.96;58.89;99204.03;2090600;28;20305;-53
2022/03/13 01:25:00;;;;;;;;;;;;;;;16.93;58.99;99200.59;2088125;28;20371;-50
2022/03/13 01:26:36;;;;;;;;;;;;;;;16.93;58.99;99205.19;2085038;28;19932;-52
2022/03/13 01:27:36;;;;;;;;;;;;;;;16.93;59.06;99200.59;2062660;28;19956;-52
2022/03/13 01:28:37;;;;;;;;;;;;;;;16.94;59.00;99196.00;2084444;28;19937;-53
2022/03/13 01:29:38;;;;;;;;;;;;;;;16.92;59.09;99193.44;2092486;28;20015;-51
2022/03/13 01:30:38;;;;;;;;;;;;;;;16.93;59.01;99194.31;2090431;28;19969;-53
2022/03/13 01:31:48;;;;;;;;;;;;;;;16.93;58.97;99194.31;2088043;28;19950;-52
2022/03/13 01:32:51;;;;;;;;;;;;;;;16.93;58.74;99188.88;2092811;28;20062;-53
2022/03/13 01:33:51;;;;;;;;;;;;;;;16.92;58.81;99182.53;2092082;28;19928;-53
2022/03/13 01:34:54;;;;;;;;;;;;;;;16.92;59.07;99188.00;2090892;28;19928;-51
2022/03/13 01:35:54;;;;;;;;;;;;;;;16.92;58.90;99187.16;2088076;28;19920;-52
2022/03/13 01:36:54;;;;;;;;;;;;;;;16.91;58.90;99180.84;2092791;28;19970;-52
2022/03/13 01:37:55;;;;;;;;;;;;;;;16.91;58.91;99180.00;2091325;28;19924;-53
2022/03/13 01:38:56;;;;;;;;;;;;;;;16.92;59.07;99176.25;2092931;28;20307;-52
2022/03/13 01:39:58;;;;;;;;;;;;;;;16.91;58.97;99174.56;2092284;28;19927;-52
2022/03/13 01:40:58;;;;;;;;;;;;;;;16.92;59.09;99173.53;2088432;28;19916;-53
2022/03/13 01:41:59;;;;;;;;;;;;;;;16.91;59.04;99169.97;2086786;28;19935;-52
2022/03/13 01:42:59;;;;;;;;;;;;;;;16.91;59.07;99169.97;2092519;28;19916;-49
2022/03/13 01:44:00;;;;;;;;;;;;;;;16.91;58.97;99163.66;2090222;28;20415;-52
2022/03/13 01:45:01;;;;;;;;;;;;;;;16.89;58.83;99169.25;2090682;28;20235;-52
2022/03/13 01:46:02;;;;;;;;;;;;;;;16.90;59.05;99167.38;2087651;28;20563;-52
2022/03/13 01:47:04;;;;;;;;;;;;;;;16.87;58.98;99162.25;2088288;28;20393;-52
2022/03/13 01:48:05;;;;;;;;;;;;;;;16.89;59.07;99162.97;2088032;28;20002;-49
2022/03/13 01:49:08;;;;;;;;;;;;;;;16.88;58.91;99166.72;2093803;28;19920;-51
2022/03/13 01:50:09;;;;;;;;;;;;;;;16.88;59.03;99169.44;2088940;28;20005;-52
2022/03/13 01:51:10;;;;;;;;;;;;;;;16.88;59.19;99161.28;2092927;28;19998;-52
2022/03/13 01:52:11;;;;;;;;;;;;;;;16.88;59.00;99161.28;2089180;28;20503;-52
2022/03/13 01:53:11;;;;;;;;;;;;;;;16.88;58.94;99164.00;2093566;28;19954;-50
2022/03/13 01:54:13;;;;;;;;;;;;;;;16.86;59.04;99161.41;2082245;28;19951;-51
2022/03/13 01:55:14;;;;;;;;;;;;;;;16.87;58.87;99159.53;2082815;28;20023;-53
2022/03/13 01:56:14;;;;;;;;;;;;;;;16.87;58.83;99154.09;2084978;28;19920;-53
2022/03/13 01:57:19;;;;;;;;;;;;;;;16.86;58.89;99149.69;2090109;28;20389;-50
2022/03/13 01:58:19;;;;;;;;;;;;;;;16.86;58.87;99155.13;2087904;28;20444;-53
2022/03/13 01:59:20;;;;;;;;;;;;;;;16.86;58.86;99155.13;2092845;28;19927;-52
2022/03/13 02:00:21;;;;;;;;;;;;;;;16.86;58.82;99149.69;2096349;28;19931;-50
2022/03/13 02:01:24;;;;;;;;;;;;;;;16.86;59.14;99160.56;2088395;28;19920;-52
2022/03/13 02:02:25;;;;;;;;;;;;;;;16.84;58.94;99147.09;2088719;28;19928;-53
2022/03/13 02:03:26;;;;;;;;;;;;;;;16.84;58.91;99147.09;2078129;28;19924;-49
2022/03/13 02:04:28;;;;;;;;;;;;;;;16.85;58.90;99151.53;2078733;28;19958;-52
2022/03/13 02:05:33;;;;;;;;;;;;;;;16.86;58.76;99150.53;2092887;28;20663;-52
2022/03/13 02:06:33;;;;;;;;;;;;;;;16.85;59.11;99154.25;2089502;28;20872;-53
2022/03/13 02:07:35;;;;;;;;;;;;;;;16.84;58.78;99146.25;2088984;28;19970;-52
2022/03/13 02:08:37;;;;;;;;;;;;;;;16.85;58.94;99146.09;2089712;28;20284;-52
2022/03/13 02:09:37;;;;;;;;;;;;;;;16.85;58.81;99153.41;2087367;28;20326;-53
2022/03/13 02:10:38;;;;;;;;;;;;;;;16.86;58.84;99150.53;2092877;28;19920;-51
2022/03/13 02:11:40;;;;;;;;;;;;;;;16.85;58.84;99151.53;2089567;28;19989;-53
2022/03/13 02:12:41;;;;;;;;;;;;;;;16.85;58.98;99162.41;2092023;28;19920;-54
2022/03/13 02:13:41;;;;;;;;;;;;;;;16.87;58.89;99152.22;2085728;28;20012;-57
2022/03/13 02:14:42;;;;;;;;;;;;;;;16.89;59.06;99149.34;2092043;28;19920;-53
2022/03/13 02:15:42;;;;;;;;;;;;;;;16.88;59.07;99143.06;2088647;28;19920;-53
2022/03/13 02:16:43;;;;;;;;;;;;;;;16.89;59.19;99147.47;2079367;28;19921;-54
2022/03/13 02:17:43;;;;;;;;;;;;;;;16.90;59.45;99140.16;2077355;28;19919;-53
2022/03/13 02:18:47;;;;;;;;;;;;;;;16.91;59.32;99141.91;2090298;28;19948;-51
2022/03/13 02:19:47;;;;;;;;;;;;;;;16.90;59.26;99138.31;2084926;28;19921;-53
2022/03/13 02:20:47;;;;;;;;;;;;;;;16.92;59.20;99143.59;2092145;28;20835;-53
2022/03/13 02:21:50;;;;;;;;;;;;;;;16.94;59.25;99136.13;2091161;28;20075;-51
2022/03/13 02:22:52;;;;;;;;;;;;;;;16.93;59.35;99135.28;2087578;28;19987;-50
2022/03/13 02:23:55;;;;;;;;;;;;;;;16.92;59.44;99139.00;2087684;28;20021;-50
2022/03/13 02:24:55;;;;;;;;;;;;;;;16.93;59.27;99128.97;2086083;28;19970;-49
2022/03/13 02:25:57;;;;;;;;;;;;;;;16.95;59.39;99129.66;2087249;28;20231;-50
2022/03/13 02:27:02;;;;;;;;;;;;;;;16.95;59.56;99131.53;2089768;28;20322;-52
2022/03/13 02:28:03;;;;;;;;;;;;;;;16.97;59.40;99133.06;2084740;28;19932;-51
2022/03/13 02:29:04;;;;;;;;;;;;;;;16.98;59.28;99131.19;2087610;28;19920;-53
2022/03/13 02:30:07;;;;;;;;;;;;;;;16.96;59.20;99120.50;2083650;28;19945;-53
2022/03/13 02:31:12;;;;;;;;;;;;;;;16.99;59.28;99133.78;2087062;28;19916;-52
2022/03/13 02:32:12;;;;;;;;;;;;;;;16.99;59.43;99128.31;2087373;28;19920;-50
2022/03/13 02:33:16;;;;;;;;;;;;;;;17.01;59.21;99130.91;2087305;28;20764;-50
2022/03/13 02:34:16;;;;;;;;;;;;;;;17.00;59.07;99127.34;2088098;28;20023;-51
2022/03/13 02:35:17;;;;;;;;;;;;;;;17.01;59.32;99115.41;2090328;28;20303;-53
2022/03/13 02:36:34;;;;;;;;;;;;;;;17.02;59.13;99117.09;2086485;28;20376;-51
2022/03/13 02:37:36;;;;;;;;;;;;;;;17.02;59.07;99122.56;2087706;28;20028;-50
2022/03/13 02:38:37;;;;;;;;;;;;;;;17.02;59.16;99122.56;2091928;28;20374;-52
2022/03/13 02:39:37;;;;;;;;;;;;;;;17.03;59.16;99113.41;2087945;28;19924;-53
2022/03/13 02:40:38;;;;;;;;;;;;;;;17.05;59.06;99116.81;2091682;28;19962;-52
2022/03/13 02:41:42;;;;;;;;;;;;;;;17.04;59.14;99115.09;2085692;28;19927;-51
2022/03/13 02:42:42;;;;;;;;;;;;;;;17.04;59.06;99098.75;2085176;28;19961;-52
2022/03/13 02:43:42;;;;;;;;;;;;;;;17.03;58.93;99105.22;2092266;28;19920;-53
2022/03/13 02:44:43;;;;;;;;;;;;;;;17.04;59.12;99104.19;2086518;28;20283;-51
2022/03/13 02:45:43;;;;;;;;;;;;;;;17.05;58.99;99103.19;2085013;28;19959;-53
2022/03/13 02:46:46;;;;;;;;;;;;;;;17.03;58.87;99102.50;2094677;28;20215;-50
2022/03/13 02:47:47;;;;;;;;;;;;;;;17.05;59.07;99092.31;2089434;28;19920;-53
2022/03/13 02:48:51;;;;;;;;;;;;;;;17.06;59.18;99102.16;2092693;28;19927;-52
2022/03/13 02:49:51;;;;;;;;;;;;;;;17.07;58.85;99098.41;2085586;28;20676;-50
2022/03/13 02:50:51;;;;;;;;;;;;;;;17.08;58.82;99099.31;2079417;28;20147;-51
2022/03/13 02:51:53;;;;;;;;;;;;;;;17.08;59.12;99099.31;2080564;28;19932;-51
2022/03/13 02:52:53;;;;;;;;;;;;;;;17.08;58.96;99093.84;2090474;28;19908;-50
2022/03/13 02:53:53;;;;;;;;;;;;;;;17.08;58.78;99100.16;2088917;28;20098;-51
2022/03/13 02:54:54;;;;;;;;;;;;;;;17.08;59.03;99089.25;2086142;28;19972;-49
2022/03/13 02:55:54;;;;;;;;;;;;;;;17.07;58.85;99095.69;2089205;28;19959;-52
2022/03/13 02:56:54;;;;;;;;;;;;;;;17.08;58.70;99091.13;2090110;28;20373;-52
2022/03/13 02:57:55;;;;;;;;;;;;;;;17.07;58.97;99097.56;2089937;28;20060;-51
2022/03/13 02:58:55;;;;;;;;;;;;;;;17.06;58.93;99085.84;2090183;28;19920;-51
2022/03/13 02:59:55;;;;;;;;;;;;;;;17.06;58.94;99085.84;2089673;28;20751;-51
2022/03/13 03:00:56;;;;;;;;;;;;;;;17.06;58.94;99095.88;2088690;28;20282;-49
2022/03/13 03:01:57;;;;;;;;;;;;;;;17.05;58.94;99089.59;2081232;28;19912;-52
2022/03/13 03:02:57;;;;;;;;;;;;;;;17.05;58.90;99110.50;2079666;28;19916;-54
2022/03/13 03:04:01;;;;;;;;;;;;;;;17.03;58.88;99102.50;2078152;28;20375;-54
2022/03/13 03:05:05;;;;;;;;;;;;;;;17.03;59.13;99107.94;2070132;28;19920;-54
2022/03/13 03:06:05;;;;;;;;;;;;;;;17.01;59.01;99103.69;2080065;28;20447;-53
2022/03/13 03:07:05;;;;;;;;;;;;;;;17.01;59.08;99109.97;2086589;28;19998;-54
2022/03/13 03:08:07;;;;;;;;;;;;;;;17.01;59.01;99109.97;2086765;28;19987;-53
2022/03/13 03:09:08;;;;;;;;;;;;;;;16.99;58.86;99098.38;2088419;28;19920;-52
2022/03/13 03:10:11;;;;;;;;;;;;;;;16.98;58.80;99103.97;2088109;28;19921;-54
2022/03/13 03:11:11;;;;;;;;;;;;;;;16.97;58.97;99100.41;2086906;28;19913;-54
2022/03/13 03:12:12;;;;;;;;;;;;;;;16.98;58.96;99103.97;2092725;28;20507;-54
2022/03/13 03:13:13;;;;;;;;;;;;;;;16.96;58.95;99101.44;2092961;28;19959;-54
2022/03/13 03:14:15;;;;;;;;;;;;;;;16.96;58.92;99093.25;2086299;28;19955;-57
2022/03/13 03:15:18;;;;;;;;;;;;;;;16.97;58.84;99097.69;2085978;28;19921;-54
2022/03/13 03:16:18;;;;;;;;;;;;;;;16.96;58.82;99104.16;2090408;28;20672;-56
2022/03/13 03:17:19;;;;;;;;;;;;;;;16.96;58.91;99095.13;2092278;28;19920;-49
2022/03/13 03:18:19;;;;;;;;;;;;;;;16.96;58.67;99082.38;2085797;28;19990;-49
2022/03/13 03:19:19;;;;;;;;;;;;;;;16.96;58.56;99093.25;2091678;28;20306;-49
2022/03/13 03:20:20;;;;;;;;;;;;;;;16.96;58.81;99084.25;2089736;28;20012;-52
2022/03/13 03:21:20;;;;;;;;;;;;;;;16.97;58.51;99091.38;2088647;28;19913;-49
2022/03/13 03:22:20;;;;;;;;;;;;;;;16.96;58.73;99090.53;2086470;28;19927;-49
2022/03/13 03:23:21;;;;;;;;;;;;;;;16.97;58.75;99089.50;2085260;28;19927;-50
2022/03/13 03:24:22;;;;;;;;;;;;;;;16.96;58.64;99096.00;2088220;28;20335;-51
2022/03/13 03:25:24;;;;;;;;;;;;;;;16.96;59.03;99096.00;2090475;28;19921;-50
2022/03/13 03:26:24;;;;;;;;;;;;;;;16.96;58.67;99082.38;2088251;28;19963;-52
2022/03/13 03:27:25;;;;;;;;;;;;;;;16.97;58.73;99091.38;2090665;28;20235;-51
2022/03/13 03:28:25;;;;;;;;;;;;;;;16.95;58.84;99099.72;2082402;28;19913;-51
2022/03/13 03:29:26;;;;;;;;;;;;;;;16.96;58.72;99076.94;2081943;28;19951;-49
2022/03/13 03:30:28;;;;;;;;;;;;;;;16.96;58.92;99090.53;2093637;28;19920;-50
2022/03/13 03:31:28;;;;;;;;;;;;;;;16.97;58.45;99075.91;2091681;28;19950;-49
2022/03/13 03:32:29;;;;;;;;;;;;;;;16.97;58.67;99084.06;2091513;28;19919;-53
2022/03/13 03:33:29;;;;;;;;;;;;;;;16.98;58.73;99088.53;2087855;28;19942;-50
2022/03/13 03:34:30;;;;;;;;;;;;;;;17.00;58.41;99091.94;2092591;28;20314;-51
2022/03/13 03:35:30;;;;;;;;;;;;;;;16.99;58.44;99082.03;2096357;28;19924;-50
2022/03/13 03:36:31;;;;;;;;;;;;;;;16.98;58.50;99083.06;2087419;28;19916;-50
2022/03/13 03:37:33;;;;;;;;;;;;;;;17.00;58.39;99085.63;2086446;28;20068;-53
2022/03/13 03:38:33;;;;;;;;;;;;;;;17.00;58.47;99081.06;2089609;28;20216;-52
2022/03/13 03:39:33;;;;;;;;;;;;;;;16.99;58.45;99082.03;2087341;28;20102;-51
2022/03/13 03:40:34;;;;;;;;;;;;;;;16.99;58.47;99084.78;2088227;28;19924;-54
2022/03/13 03:41:35;;;;;;;;;;;;;;;17.00;58.51;99089.22;2081492;28;19916;-53
2022/03/13 03:42:36;;;;;;;;;;;;;;;17.01;58.28;99084.63;2081418;28;20004;-54
2022/03/13 03:43:36;;;;;;;;;;;;;;;17.00;58.29;99077.44;2090658;28;19999;-53
2022/03/13 03:44:36;;;;;;;;;;;;;;;17.00;58.40;99075.59;2090481;28;20286;-54
2022/03/13 03:45:37;;;;;;;;;;;;;;;17.00;58.40;99075.59;2096450;28;19919;-53
2022/03/13 03:46:37;;;;;;;;;;;;;;;17.00;58.45;99075.59;2089976;28;19920;-53
2022/03/13 03:47:38;;;;;;;;;;;;;;;17.00;58.29;99075.59;2094847;28;20688;-53
2022/03/13 03:48:38;;;;;;;;;;;;;;;17.00;58.13;99081.06;2092026;28;19920;-52
2022/03/13 03:49:38;;;;;;;;;;;;;;;17.00;58.38;99075.59;2081943;28;19921;-53
2022/03/13 03:50:39;;;;;;;;;;;;;;;17.01;58.23;99066.41;2090003;28;19958;-52
2022/03/13 03:51:40;;;;;;;;;;;;;;;17.03;58.36;99072.56;2093108;28;19920;-53
2022/03/13 03:52:41;;;;;;;;;;;;;;;17.03;58.30;99072.56;2088812;28;19920;-53
2022/03/13 03:53:41;;;;;;;;;;;;;;;17.02;58.18;99073.56;2097599;28;19950;-54
2022/03/13 03:54:41;;;;;;;;;;;;;;;17.03;58.14;99067.09;2091258;28;19927;-55
2022/03/13 03:55:42;;;;;;;;;;;;;;;17.01;58.14;99063.69;2089294;28;19999;-54
2022/03/13 03:56:42;;;;;;;;;;;;;;;17.03;58.20;99075.28;2089374;28;19966;-50
2022/03/13 03:57:43;;;;;;;;;;;;;;;17.02;57.88;99068.09;2087637;28;19924;-49
2022/03/13 03:58:44;;;;;;;;;;;;;;;17.04;57.94;99076.13;2094530;28;19924;-52
2022/03/13 03:59:44;;;;;;;;;;;;;;;17.05;58.08;99073.25;2091764;28;19969;-52
2022/03/13 04:00:45;;;;;;;;;;;;;;;17.06;57.98;99082.25;2092897;28;19923;-52
2022/03/13 04:01:45;;;;;;;;;;;;;;;17.08;57.67;99082.97;2093125;28;19920;-53
2022/03/13 04:02:45;;;;;;;;;;;;;;;17.07;58.06;99083.97;2085586;28;20417;-54
2022/03/13 04:03:46;;;;;;;;;;;;;;;17.07;57.91;99092.97;2092544;28;20181;-51
2022/03/13 04:04:47;;;;;;;;;;;;;;;17.09;57.86;99084.66;2092228;28;19924;-52
2022/03/13 04:05:47;;;;;;;;;;;;;;;17.08;57.90;99078.38;2090311;28;19912;-52
2022/03/13 04:06:47;;;;;;;;;;;;;;;17.09;57.90;99085.50;2087517;28;19924;-53
2022/03/13 04:07:48;;;;;;;;;;;;;;;17.10;57.87;99087.22;2093138;28;19914;-51
2022/03/13 04:08:48;;;;;;;;;;;;;;;17.10;58.05;99086.38;2087675;28;20531;-54
2022/03/13 04:09:49;;;;;;;;;;;;;;;17.09;57.94;99077.34;2095956;28;19955;-53
2022/03/13 04:10:49;;;;;;;;;;;;;;;17.09;58.15;99069.16;2089718;28;19969;-54
2022/03/13 04:11:51;;;;;;;;;;;;;;;17.11;57.69;99066.28;2090807;28;20015;-52
2022/03/13 04:12:51;;;;;;;;;;;;;;;17.09;57.96;99069.16;2091689;28;20321;-53
2022/03/13 04:13:51;;;;;;;;;;;;;;;17.09;57.88;99061.00;2088767;28;20156;-53
2022/03/13 04:14:52;;;;;;;;;;;;;;;17.10;58.13;99062.72;2092566;28;19921;-50
2022/03/13 04:15:52;;;;;;;;;;;;;;;17.09;58.06;99057.44;2085440;28;20409;-48
2022/03/13 04:16:53;;;;;;;;;;;;;;;17.10;58.03;99064.59;2081925;28;20381;-48
2022/03/13 04:17:55;;;;;;;;;;;;;;;17.07;57.87;99054.84;2085291;28;20221;-51
2022/03/13 04:18:56;;;;;;;;;;;;;;;17.04;58.11;99055.19;2087205;28;20666;-48
2022/03/13 04:19:57;;;;;;;;;;;;;;;17.02;57.96;99059.94;2091178;28;19960;-48
2022/03/13 04:20:58;;;;;;;;;;;;;;;17.00;58.11;99062.00;2091895;28;19922;-49
2022/03/13 04:21:58;;;;;;;;;;;;;;;16.98;57.90;99054.97;2090311;28;19943;-49
2022/03/13 04:22:59;;;;;;;;;;;;;;;16.96;58.20;99057.88;2091565;28;19908;-52
2022/03/13 04:23:59;;;;;;;;;;;;;;;16.94;58.14;99049.00;2079418;28;19920;-49
2022/03/13 04:24:59;;;;;;;;;;;;;;;16.93;58.24;99050.03;2083305;28;20329;-51
2022/03/13 04:26:01;;;;;;;;;;;;;;;16.92;58.23;99049.16;2088678;28;19981;-50
2022/03/13 04:27:02;;;;;;;;;;;;;;;16.91;58.27;99052.06;2102190;28;20203;-51
2022/03/13 04:28:02;;;;;;;;;;;;;;;16.90;58.43;99042.16;2084836;28;19924;-49
2022/03/13 04:29:03;;;;;;;;;;;;;;;16.89;58.39;99046.75;2096441;28;20592;-49
2022/03/13 04:30:04;;;;;;;;;;;;;;;16.89;58.41;99041.31;2093446;28;19963;-50
2022/03/13 04:31:08;;;;;;;;;;;;;;;16.88;58.67;99034.19;2093352;28;19908;-50
2022/03/13 04:32:09;;;;;;;;;;;;;;;16.88;58.36;99030.63;2091808;28;19942;-49
2022/03/13 04:33:09;;;;;;;;;;;;;;;16.87;58.47;99037.06;2087051;28;19926;-50
2022/03/13 04:34:10;;;;;;;;;;;;;;;16.86;58.67;99030.75;2090731;28;19915;-50
2022/03/13 04:35:10;;;;;;;;;;;;;;;16.85;58.45;99026.31;2100441;28;19907;-49
2022/03/13 04:36:15;;;;;;;;;;;;;;;16.86;58.58;99028.03;2092157;28;19916;-48
2022/03/13 04:37:16;;;;;;;;;;;;;;;16.86;58.36;99035.38;2095362;28;19912;-51
2022/03/13 04:38:16;;;;;;;;;;;;;;;16.86;58.39;99040.81;2091632;28;19924;-49
2022/03/13 04:39:17;;;;;;;;;;;;;;;16.85;58.42;99039.06;2090190;28;20158;-48
2022/03/13 04:40:18;;;;;;;;;;;;;;;16.84;58.54;99035.50;2093250;28;20343;-49
2022/03/13 04:41:18;;;;;;;;;;;;;;;16.85;58.59;99036.34;2092599;28;20453;-50
2022/03/13 04:42:18;;;;;;;;;;;;;;;16.84;58.58;99030.06;2095313;28;19924;-48
2022/03/13 04:43:20;;;;;;;;;;;;;;;16.84;58.62;99032.78;2091439;28;20184;-49
2022/03/13 04:44:21;;;;;;;;;;;;;;;16.83;58.54;99032.94;2088005;28;19974;-52
2022/03/13 04:45:25;;;;;;;;;;;;;;;16.84;58.65;99029.22;2089205;28;20027;-48
2022/03/13 04:46:26;;;;;;;;;;;;;;;16.84;58.51;99037.38;2082644;28;20274;-48
2022/03/13 04:47:31;;;;;;;;;;;;;;;16.82;58.44;99032.09;2082160;28;19924;-48
2022/03/13 04:48:32;;;;;;;;;;;;;;;16.83;58.61;99025.66;2089639;28;20414;-50
2022/03/13 04:49:33;;;;;;;;;;;;;;;16.82;58.62;99039.41;2089023;28;19922;-48
2022/03/13 04:50:33;;;;;;;;;;;;;;;16.82;58.51;99033.97;2087159;28;19920;-48
2022/03/13 04:51:34;;;;;;;;;;;;;;;16.82;58.57;99039.41;2096827;28;20014;-51
2022/03/13 04:52:34;;;;;;;;;;;;;;;16.82;58.57;99033.97;2095572;28;20224;-50
2022/03/13 04:53:34;;;;;;;;;;;;;;;16.83;58.43;99030.22;2083367;28;19920;-48
2022/03/13 04:54:35;;;;;;;;;;;;;;;16.82;58.45;99031.25;2081954;28;20824;-50
2022/03/13 04:55:35;;;;;;;;;;;;;;;16.82;58.49;99028.53;2093932;28;19912;-49
2022/03/13 04:56:35;;;;;;;;;;;;;;;16.81;58.42;99018.66;2090913;28;19926;-48
2022/03/13 04:57:35;;;;;;;;;;;;;;;16.82;58.58;99015.75;2090781;28;20295;-49
2022/03/13 04:58:36;;;;;;;;;;;;;;;16.82;58.40;99017.63;2092002;28;19967;-49
2022/03/13 04:59:36;;;;;;;;;;;;;;;16.81;58.43;99008.63;2085319;28;19931;-49
2022/03/13 05:00:38;;;;;;;;;;;;;;;16.82;58.28;99020.34;2089591;28;20755;-48
2022/03/13 05:01:38;;;;;;;;;;;;;;;16.83;58.32;99013.88;2090475;28;19926;-49
2022/03/13 05:02:38;;;;;;;;;;;;;;;16.83;58.46;99019.34;2092489;28;19920;-49
2022/03/13 05:03:39;;;;;;;;;;;;;;;16.83;58.24;99014.75;2087014;28;19915;-49
2022/03/13 05:04:43;;;;;;;;;;;;;;;16.82;58.52;99013.03;2091760;28;19977;-49
2022/03/13 05:05:43;;;;;;;;;;;;;;;16.83;58.41;99019.34;2089682;28;19951;-49
2022/03/13 05:06:45;;;;;;;;;;;;;;;16.83;58.28;99008.44;2092137;28;19920;-48
2022/03/13 05:07:45;;;;;;;;;;;;;;;16.82;58.26;99021.22;2080333;28;19935;-50
2022/03/13 05:08:47;;;;;;;;;;;;;;;16.82;58.36;99017.63;2085939;28;20380;-48
2022/03/13 05:09:47;;;;;;;;;;;;;;;16.83;58.29;99013.88;2094249;28;20203;-51
2022/03/13 05:10:47;;;;;;;;;;;;;;;16.82;58.12;99012.19;2087734;28;19935;-49
2022/03/13 05:11:48;;;;;;;;;;;;;;;16.82;58.22;99017.63;2088691;28;20366;-50
2022/03/13 05:12:48;;;;;;;;;;;;;;;16.82;58.08;99018.47;2091048;28;20285;-49
2022/03/13 05:13:48;;;;;;;;;;;;;;;16.82;58.05;99017.63;2087739;28;19920;-48
2022/03/13 05:14:48;;;;;;;;;;;;;;;16.82;57.87;99023.94;2092392;28;20254;-49
2022/03/13 05:15:49;;;;;;;;;;;;;;;16.84;57.93;99023.78;2095004;28;20326;-48
2022/03/13 05:16:49;;;;;;;;;;;;;;;16.83;58.07;99024.78;2090114;28;19920;-50
2022/03/13 05:17:50;;;;;;;;;;;;;;;16.83;57.86;99025.66;2092587;28;20152;-48
2022/03/13 05:18:50;;;;;;;;;;;;;;;16.82;58.06;99029.38;2085567;28;20205;-50